Mc Kellar Sipes Regional Airport Jackson US
ICAO: KMKL
IATA: MKL
Category: Medium
Scheduled Services: Yes

Elevation: 434 ft
TransAlt. 18000 ft.

Airport Communications:
ASOS:119.325
MEMPHIS CNTR:134.65
CTAF:127.15
GND:120.9
ARNG OPS:41.5
JACKSON RDO:122.2
JACKSON TWR:127.15
UNICOM:122.95

KMKL Zoom In..

Runways:

(A) RW 02 length 6006 ft width 150 ft
ILS 109.10 / hdg 23

(B) RW 11 length 3538 ft width 100 ft
---- / hdg 113

(C) RW 20 length 6006 ft width 150 ft
---- / hdg 203

(D) RW 29 length 3538 ft width 100 ft
---- / hdg 293

Location; KMKL
Day. 06 / Time. 06.53 Zulu
* Altimeter: 30.04
* Temperature: 18° c. 64.4°f.
* Wind from: 340° Speed 03 kn.
Dewpoint: 17° c.
Visibility: 10 Statute Miles.
Clouds: Clear (automated report).

KMKL 060653Z AUTO 34003KT 10SM CLR 18/17 A3004 RMK AO2 SLP169 T01830167

Going to: --> -->


Wind From 340°
Speed 03 kn.

 
 
jpsmedia worldairports.se 2020   terms of use